createdAt,value
2019-02-14T00:01:38.469Z,8.23
2019-02-14T00:04:11.025Z,9.40
2019-02-14T00:06:43.509Z,9.63
2019-02-14T00:09:16.206Z,8.20
2019-02-14T00:11:49.113Z,5.27
2019-02-14T00:14:21.459Z,7.47
2019-02-14T00:16:53.952Z,8.70
2019-02-14T00:19:26.559Z,8.60
2019-02-14T00:21:58.864Z,7.60
2019-02-14T00:24:31.360Z,7.53
2019-02-14T00:27:03.578Z,8.73
2019-02-14T00:29:36.300Z,4.70
2019-02-14T00:32:08.898Z,9.47
2019-02-14T00:34:41.333Z,5.53
2019-02-14T00:37:13.917Z,4.93
2019-02-14T00:39:46.730Z,5.70
2019-02-14T00:42:19.106Z,8.97
2019-02-14T00:44:51.428Z,7.97
2019-02-14T00:47:24.292Z,7.10
2019-02-14T00:49:57.218Z,6.20
2019-02-14T00:52:29.750Z,8.40
2019-02-14T00:55:02.252Z,9.30
2019-02-14T00:57:34.488Z,9.23
2019-02-14T01:00:07.476Z,10.23
2019-02-14T01:02:39.864Z,7.33
2019-02-14T01:05:12.381Z,9.70
2019-02-14T01:07:44.709Z,7.27
2019-02-14T01:10:17.370Z,8.73
2019-02-14T01:12:50.074Z,5.83
2019-02-14T01:15:25.565Z,8.67
2019-02-14T01:17:58.037Z,8.63
2019-02-14T01:20:30.791Z,7.23
2019-02-14T01:23:03.228Z,5.87
2019-02-14T01:25:35.714Z,8.07
2019-02-14T01:28:08.087Z,5.77
2019-02-14T01:30:40.935Z,8.37
2019-02-14T01:33:13.299Z,5.97
2019-02-14T01:35:45.642Z,8.23
2019-02-14T01:38:18.154Z,6.67
2019-02-14T01:40:50.759Z,6.33
2019-02-14T01:43:23.741Z,4.47
2019-02-14T01:45:56.509Z,6.30
2019-02-14T01:48:29.598Z,5.17
2019-02-14T01:51:01.948Z,7.30
2019-02-14T01:53:34.755Z,6.23
2019-02-14T01:56:07.624Z,7.17
2019-02-14T01:58:40.077Z,4.33
2019-02-14T02:01:12.876Z,4.37
2019-02-14T02:03:45.655Z,6.20
2019-02-14T02:06:18.334Z,7.03
2019-02-14T02:08:51.294Z,3.73
2019-02-14T02:11:24.146Z,5.90
2019-02-14T02:13:56.719Z,6.87
2019-02-14T02:16:29.326Z,5.73
2019-02-14T02:19:01.872Z,6.90
2019-02-14T02:21:34.413Z,5.93
2019-02-14T02:24:07.161Z,4.77
2019-02-14T02:26:39.681Z,8.20
2019-02-14T02:29:11.993Z,5.20
2019-02-14T02:31:44.554Z,10.37
2019-02-14T02:34:16.830Z,6.70
2019-02-14T02:36:49.298Z,5.80
2019-02-14T02:39:21.794Z,4.70
2019-02-14T02:41:54.466Z,5.13
2019-02-14T02:44:26.932Z,5.97
2019-02-14T02:46:59.408Z,6.50
2019-02-14T02:49:31.881Z,6.50
2019-02-14T02:52:04.554Z,6.23
2019-02-14T02:54:37.097Z,6.40
2019-02-14T02:57:09.617Z,5.53
2019-02-14T02:59:42.304Z,7.67
2019-02-14T03:02:15.570Z,7.93
2019-02-14T03:04:47.874Z,5.63
2019-02-14T03:07:20.974Z,4.67
2019-02-14T03:09:53.530Z,6.00
2019-02-14T03:12:26.166Z,6.30
2019-02-14T03:14:58.570Z,6.57
2019-02-14T03:17:31.611Z,9.30
2019-02-14T03:20:04.549Z,5.03
2019-02-14T03:22:37.402Z,6.87
2019-02-14T03:25:13.862Z,8.63
2019-02-14T03:27:46.749Z,6.90
2019-02-14T03:30:19.273Z,6.47
2019-02-14T03:32:51.745Z,7.57
2019-02-14T03:35:24.183Z,5.03
2019-02-14T03:37:56.772Z,11.50
2019-02-14T03:40:29.519Z,8.40
2019-02-14T03:43:01.988Z,6.77
2019-02-14T03:45:34.888Z,11.20
2019-02-14T03:48:07.347Z,11.43
2019-02-14T03:50:39.809Z,5.13
2019-02-14T03:53:12.316Z,9.13
2019-02-14T03:55:44.674Z,8.53
2019-02-14T03:58:17.127Z,6.40
2019-02-14T04:00:49.566Z,5.70
2019-02-14T04:03:22.148Z,7.30
2019-02-14T04:05:54.830Z,6.83
2019-02-14T04:08:27.432Z,5.43
2019-02-14T04:10:59.875Z,3.93
2019-02-14T04:13:33.312Z,7.00
2019-02-14T04:16:06.107Z,8.53
2019-02-14T04:18:39.085Z,6.63
2019-02-14T04:21:11.515Z,9.57
2019-02-14T04:23:43.855Z,6.97
2019-02-14T04:26:16.603Z,6.17
2019-02-14T04:28:49.001Z,6.50
2019-02-14T04:31:21.312Z,5.50
2019-02-14T04:33:53.781Z,7.80
2019-02-14T04:36:26.106Z,7.77
2019-02-14T04:38:58.486Z,7.40
2019-02-14T04:41:31.060Z,8.90
2019-02-14T04:44:03.505Z,6.80
2019-02-14T04:46:36.086Z,6.60
2019-02-14T04:49:08.568Z,6.83
2019-02-14T04:51:41.098Z,8.50
2019-02-14T04:54:13.525Z,9.33
2019-02-14T04:56:45.938Z,7.07
2019-02-14T04:59:18.713Z,22.03
2019-02-14T05:01:51.277Z,12.80
2019-02-14T05:04:23.888Z,5.53
2019-02-14T05:06:56.531Z,7.43
2019-02-14T05:09:28.988Z,9.73
2019-02-14T05:12:01.581Z,7.73
2019-02-14T05:14:34.032Z,9.83
2019-02-14T05:17:06.635Z,7.40
2019-02-14T05:19:40.643Z,7.77
2019-02-14T05:22:12.950Z,6.80
2019-02-14T05:24:45.386Z,8.77
2019-02-14T05:27:17.891Z,7.37
2019-02-14T05:29:50.187Z,7.00
2019-02-14T05:32:22.786Z,9.37
2019-02-14T05:34:55.334Z,8.53
2019-02-14T05:37:46.950Z,7.90
2019-02-14T05:40:19.543Z,5.87
2019-02-14T05:42:52.491Z,6.67
2019-02-14T05:45:25.004Z,9.43
2019-02-14T05:47:57.584Z,8.77
2019-02-14T05:50:30.358Z,6.40
2019-02-14T05:53:03.758Z,6.87
2019-02-14T05:55:36.249Z,7.00
2019-02-14T05:58:08.913Z,9.60
2019-02-14T06:00:41.396Z,9.37
2019-02-14T06:03:14.553Z,7.37
2019-02-14T06:05:47.150Z,12.00
2019-02-14T06:08:19.528Z,9.33
2019-02-14T06:10:52.008Z,8.67
2019-02-14T06:13:24.524Z,7.07
2019-02-14T06:15:57.158Z,7.03
2019-02-14T06:18:29.766Z,6.40
2019-02-14T06:21:02.681Z,13.13
2019-02-14T06:23:35.988Z,17.87
2019-02-14T06:26:09.391Z,16.27
2019-02-14T06:28:41.681Z,13.50
2019-02-14T06:31:14.325Z,16.60
2019-02-14T06:33:47.206Z,18.10
2019-02-14T06:36:20.018Z,13.30
2019-02-14T06:38:52.692Z,11.40
2019-02-14T06:41:26.924Z,9.47
2019-02-14T06:43:59.775Z,9.00
2019-02-14T06:46:32.837Z,10.43
2019-02-14T06:49:05.362Z,10.23
2019-02-14T06:51:38.060Z,10.03
2019-02-14T06:54:10.518Z,7.50
2019-02-14T06:56:43.031Z,14.27
2019-02-14T06:59:16.043Z,19.10
2019-02-14T07:01:48.706Z,16.00
2019-02-14T07:04:21.470Z,14.57
2019-02-14T07:06:54.147Z,13.00
2019-02-14T07:09:28.383Z,15.07
2019-02-14T07:12:00.836Z,6.80
2019-02-14T07:14:33.579Z,11.77
2019-02-14T07:17:06.003Z,10.87
2019-02-14T07:19:38.650Z,10.17
2019-02-14T07:22:11.551Z,15.07
2019-02-14T07:24:44.599Z,9.30
2019-02-14T07:27:17.029Z,16.07
2019-02-14T07:29:49.436Z,11.70
2019-02-14T07:32:21.996Z,10.67
2019-02-14T07:34:54.631Z,10.40
2019-02-14T07:37:27.274Z,8.03
2019-02-14T07:39:59.810Z,10.60
2019-02-14T07:42:32.251Z,9.30
2019-02-14T07:45:07.890Z,9.53
2019-02-14T07:47:40.287Z,9.47
2019-02-14T07:50:13.127Z,7.00
2019-02-14T07:52:45.758Z,8.00
2019-02-14T07:55:20.026Z,6.67
2019-02-14T07:57:52.350Z,7.67
2019-02-14T08:00:25.419Z,6.90
2019-02-14T08:02:58.004Z,7.83
2019-02-14T08:05:30.301Z,9.50
2019-02-14T08:08:02.754Z,11.17
2019-02-14T08:10:37.100Z,8.97
2019-02-14T08:13:11.967Z,9.90
2019-02-14T08:15:44.867Z,8.27
2019-02-14T08:18:17.336Z,8.97
2019-02-14T08:20:50.195Z,8.03
2019-02-14T08:23:22.538Z,7.57
2019-02-14T08:25:55.596Z,11.37
2019-02-14T08:28:28.044Z,9.43
2019-02-14T08:31:00.446Z,7.57
2019-02-14T08:33:33.379Z,11.77
2019-02-14T08:36:05.972Z,20.70
2019-02-14T08:38:38.645Z,12.97
2019-02-14T08:41:11.295Z,7.60
2019-02-14T08:43:43.878Z,6.63
2019-02-14T08:46:16.449Z,10.10
2019-02-14T08:48:48.914Z,8.83
2019-02-14T08:51:22.005Z,9.90
2019-02-14T08:53:54.329Z,9.50
2019-02-14T08:56:27.054Z,11.13
2019-02-14T08:58:59.605Z,8.27
2019-02-14T09:01:32.227Z,9.20
2019-02-14T09:04:04.440Z,8.73
2019-02-14T09:06:37.064Z,8.93
2019-02-14T09:09:09.670Z,7.77
2019-02-14T09:11:42.014Z,6.77
2019-02-14T09:14:15.142Z,19.93
2019-02-14T09:16:47.501Z,10.30
2019-02-14T09:19:20.365Z,12.27
2019-02-14T09:21:52.901Z,11.70
2019-02-14T09:24:25.578Z,9.13
2019-02-14T09:26:58.083Z,9.23
2019-02-14T09:29:30.955Z,8.17
2019-02-14T09:32:03.663Z,9.87
2019-02-14T09:34:36.581Z,8.00
2019-02-14T09:37:09.156Z,7.80
2019-02-14T09:39:44.445Z,7.37
2019-02-14T09:42:17.152Z,8.20
2019-02-14T09:44:49.693Z,6.53
2019-02-14T09:47:22.311Z,10.20
2019-02-14T09:49:54.741Z,9.33
2019-02-14T09:52:27.100Z,6.03
2019-02-14T09:54:59.636Z,5.93
2019-02-14T09:57:32.518Z,6.63
2019-02-14T10:00:05.125Z,6.33
2019-02-14T10:02:37.540Z,8.37
2019-02-14T10:05:10.843Z,6.67
2019-02-14T10:07:43.394Z,7.37
2019-02-14T10:10:17.973Z,8.27
2019-02-14T10:12:50.394Z,6.33
2019-02-14T10:15:22.853Z,7.40
2019-02-14T10:17:55.455Z,8.47
2019-02-14T10:20:28.271Z,9.13
2019-02-14T10:23:00.967Z,10.43
2019-02-14T10:25:33.635Z,7.60
2019-02-14T10:28:06.260Z,7.47
2019-02-14T10:30:40.221Z,7.53
2019-02-14T10:33:12.936Z,12.77
2019-02-14T10:35:45.325Z,8.43
2019-02-14T10:38:22.254Z,15.63
2019-02-14T10:40:52.083Z,15.43
2019-02-14T10:43:24.589Z,13.13
2019-02-14T10:45:56.929Z,12.10
2019-02-14T10:48:29.494Z,10.67
2019-02-14T10:51:01.813Z,12.83
2019-02-14T10:53:34.658Z,8.53
2019-02-14T10:56:08.361Z,9.07
2019-02-14T10:58:40.854Z,10.83
2019-02-14T11:01:13.696Z,20.80
2019-02-14T11:03:46.411Z,26.20
2019-02-14T11:06:18.744Z,9.80
2019-02-14T11:08:51.300Z,15.80
2019-02-14T11:11:23.672Z,21.50
2019-02-14T11:13:56.275Z,9.67
2019-02-14T11:16:30.655Z,8.17
2019-02-14T11:19:03.104Z,8.20
2019-02-14T11:21:35.789Z,8.83
2019-02-14T11:24:08.672Z,9.40
2019-02-14T11:26:43.655Z,7.37
2019-02-14T11:29:16.331Z,23.83
2019-02-14T11:31:49.299Z,8.57
2019-02-14T11:34:21.988Z,7.90
2019-02-14T11:36:54.694Z,7.90
2019-02-14T11:39:27.179Z,8.60
2019-02-14T11:41:59.871Z,6.47
2019-02-14T11:44:39.592Z,9.90
2019-02-14T11:47:07.852Z,8.93
2019-02-14T11:49:40.575Z,8.33
2019-02-14T11:52:13.048Z,11.10
2019-02-14T11:54:45.533Z,9.27
2019-02-14T11:57:17.924Z,6.13
2019-02-14T11:59:50.389Z,7.33
2019-02-14T12:02:22.896Z,9.50
2019-02-14T12:04:55.448Z,6.40
2019-02-14T12:07:28.229Z,8.90
2019-02-14T12:10:00.803Z,7.30
2019-02-14T12:12:33.244Z,6.57
2019-02-14T12:15:06.149Z,6.90
2019-02-14T12:17:38.638Z,7.10
2019-02-14T12:20:12.532Z,9.93
2019-02-14T12:22:47.205Z,8.23
2019-02-14T12:25:19.768Z,8.67
2019-02-14T12:27:52.155Z,8.10
2019-02-14T12:30:24.726Z,7.27
2019-02-14T12:32:57.316Z,10.17
2019-02-14T12:35:29.926Z,8.40
2019-02-14T12:38:02.537Z,7.60
2019-02-14T12:40:35.159Z,9.73
2019-02-14T12:43:07.745Z,7.73
2019-02-14T12:45:40.311Z,7.53
2019-02-14T12:48:12.624Z,10.87
2019-02-14T12:51:04.087Z,11.73
2019-02-14T12:53:36.650Z,8.90
2019-02-14T12:56:10.032Z,9.63
2019-02-14T12:58:42.653Z,8.90
2019-02-14T13:01:15.307Z,8.73
2019-02-14T13:03:50.055Z,8.93
2019-02-14T13:06:22.809Z,9.60
2019-02-14T13:08:55.290Z,42.67
2019-02-14T13:11:27.741Z,32.57
2019-02-14T13:14:00.354Z,25.70
2019-02-14T13:16:32.773Z,14.03
2019-02-14T13:19:05.458Z,13.90
2019-02-14T13:21:37.971Z,8.77
2019-02-14T13:24:10.658Z,9.10
2019-02-14T13:26:43.530Z,8.30
2019-02-14T13:29:15.973Z,30.77
2019-02-14T13:31:48.579Z,8.80
2019-02-14T13:34:21.000Z,8.93
2019-02-14T13:37:01.322Z,8.97
2019-02-14T13:39:30.245Z,7.40
2019-02-14T13:42:02.079Z,6.80
2019-02-14T13:44:35.332Z,6.63
2019-02-14T13:47:07.953Z,6.40
2019-02-14T13:49:40.416Z,7.07
2019-02-14T13:52:13.179Z,17.87
2019-02-14T13:54:45.878Z,15.70
2019-02-14T13:57:18.261Z,7.37
2019-02-14T13:59:51.029Z,15.07
2019-02-14T14:02:23.615Z,9.23
2019-02-14T14:04:56.110Z,6.23
2019-02-14T14:07:28.953Z,6.73
2019-02-14T14:10:01.650Z,10.00
2019-02-14T14:12:34.472Z,9.43
2019-02-14T14:15:07.419Z,6.93
2019-02-14T14:17:40.086Z,8.73
2019-02-14T14:20:12.967Z,27.80
2019-02-14T14:22:45.547Z,19.33
2019-02-14T14:25:18.119Z,12.33
2019-02-14T14:27:50.612Z,7.03
2019-02-14T14:30:23.079Z,7.90
2019-02-14T14:32:55.683Z,7.60
2019-02-14T14:35:28.225Z,8.00
2019-02-14T14:38:01.153Z,10.00
2019-02-14T14:40:33.681Z,6.97
2019-02-14T14:43:22.895Z,8.03
2019-02-14T14:46:17.653Z,7.10
2019-02-14T14:48:50.339Z,9.67
2019-02-14T14:51:23.073Z,7.30
2019-02-14T14:53:55.694Z,8.60
2019-02-14T14:56:28.240Z,8.83
2019-02-14T14:59:00.576Z,13.37
2019-02-14T15:01:33.121Z,10.67
2019-02-14T15:04:05.836Z,9.00
2019-02-14T15:06:38.342Z,10.07
2019-02-14T15:09:10.684Z,7.73
2019-02-14T15:11:43.160Z,12.70
2019-02-14T15:14:15.670Z,6.73
2019-02-14T15:16:48.405Z,11.63
2019-02-14T15:19:21.113Z,9.43
2019-02-14T15:21:53.761Z,14.50
2019-02-14T15:24:26.363Z,7.37
2019-02-14T15:26:58.770Z,7.33
2019-02-14T15:29:31.595Z,8.50
2019-02-14T15:32:04.383Z,10.10
2019-02-14T15:34:37.156Z,8.67
2019-02-14T15:37:09.837Z,9.03
2019-02-14T15:39:42.261Z,9.30
2019-02-14T15:42:14.790Z,13.13
2019-02-14T15:44:47.822Z,8.13
2019-02-14T15:47:20.134Z,9.23
2019-02-14T15:49:52.608Z,10.70
2019-02-14T15:52:27.337Z,9.17
2019-02-14T15:54:59.972Z,11.20
2019-02-14T15:57:32.601Z,11.73
2019-02-14T16:00:07.864Z,10.43
2019-02-14T16:02:40.203Z,12.67
2019-02-14T16:05:12.603Z,8.20
2019-02-14T16:07:45.105Z,14.13
2019-02-14T16:10:18.820Z,12.37
2019-02-14T16:12:52.790Z,11.17
2019-02-14T16:15:30.846Z,12.50
2019-02-14T16:18:04.802Z,10.97
2019-02-14T16:20:40.407Z,10.87
2019-02-14T16:23:14.534Z,12.03
2019-02-14T16:25:47.214Z,19.37
2019-02-14T16:28:20.061Z,17.57
2019-02-14T16:30:54.654Z,23.60
2019-02-14T16:33:28.798Z,14.87
2019-02-14T16:36:01.691Z,10.50
2019-02-14T16:38:35.642Z,11.87
2019-02-14T16:41:08.583Z,12.70
2019-02-14T16:43:41.161Z,10.97
2019-02-14T16:46:13.737Z,10.73
2019-02-14T16:48:46.503Z,16.70
2019-02-14T16:51:19.181Z,15.87
2019-02-14T16:53:51.851Z,24.77
2019-02-14T16:56:24.509Z,16.77
2019-02-14T16:58:57.132Z,15.43
2019-02-14T17:01:29.702Z,14.17
2019-02-14T17:04:02.143Z,10.63
2019-02-14T17:06:34.829Z,12.37
2019-02-14T17:09:08.121Z,11.23
2019-02-14T17:11:40.513Z,16.93
2019-02-14T17:14:14.042Z,9.77
2019-02-14T17:16:46.705Z,12.27
2019-02-14T17:19:19.537Z,18.00
2019-02-14T17:21:52.620Z,30.77
2019-02-14T17:24:25.593Z,12.77
2019-02-14T17:26:58.507Z,10.57
2019-02-14T17:29:31.127Z,18.80
2019-02-14T17:32:03.799Z,15.30
2019-02-14T17:34:36.305Z,9.87
2019-02-14T17:37:08.892Z,9.70
2019-02-14T17:39:41.615Z,11.67
2019-02-14T17:42:14.085Z,9.17
2019-02-14T17:44:46.451Z,8.93
2019-02-14T17:47:18.789Z,9.83
2019-02-14T17:49:51.398Z,10.07
2019-02-14T17:52:24.005Z,25.77
2019-02-14T17:54:56.690Z,19.73
2019-02-14T17:57:29.205Z,15.83
2019-02-14T18:00:01.754Z,11.00
2019-02-14T18:02:34.088Z,13.60
2019-02-14T18:05:07.336Z,13.07
2019-02-14T18:07:40.458Z,10.07
2019-02-14T18:10:13.732Z,25.70
2019-02-14T18:12:46.475Z,21.23
2019-02-14T18:15:18.891Z,21.03
2019-02-14T18:17:51.571Z,37.73
2019-02-14T18:20:24.127Z,17.47
2019-02-14T18:22:56.488Z,15.43
2019-02-14T18:25:29.045Z,11.73
2019-02-14T18:28:01.541Z,11.37
2019-02-14T18:30:33.945Z,11.97
2019-02-14T18:33:06.361Z,14.27
2019-02-14T18:35:39.268Z,15.40
2019-02-14T18:38:11.751Z,24.63
2019-02-14T18:40:44.298Z,13.83
2019-02-14T18:43:16.764Z,21.10
2019-02-14T18:45:49.414Z,32.07
2019-02-14T18:48:22.176Z,12.23
2019-02-14T18:50:54.712Z,16.60
2019-02-14T18:53:27.304Z,18.70
2019-02-14T18:56:00.039Z,21.47
2019-02-14T18:58:32.603Z,17.03
2019-02-14T19:01:06.846Z,14.57
2019-02-14T19:03:39.861Z,14.87
2019-02-14T19:06:12.652Z,14.23
2019-02-14T19:08:45.522Z,13.50
2019-02-14T19:11:18.466Z,16.10
2019-02-14T19:13:51.226Z,13.97
2019-02-14T19:16:23.935Z,12.83
2019-02-14T19:18:58.693Z,16.60
2019-02-14T19:21:31.271Z,28.20
2019-02-14T19:24:04.076Z,41.73
2019-02-14T19:26:37.566Z,13.80
2019-02-14T19:29:10.206Z,14.50
2019-02-14T19:31:42.753Z,18.03
2019-02-14T19:34:15.164Z,12.77
2019-02-14T19:36:47.926Z,12.33
2019-02-14T19:39:20.345Z,17.77
2019-02-14T19:41:52.995Z,18.57
2019-02-14T19:44:25.608Z,21.43
2019-02-14T19:46:58.139Z,19.90
2019-02-14T19:49:30.580Z,14.10
2019-02-14T19:52:03.156Z,16.07
2019-02-14T19:54:36.310Z,16.57
2019-02-14T19:57:08.861Z,17.30
2019-02-14T19:59:41.414Z,14.10
2019-02-14T20:02:14.081Z,16.80
2019-02-14T20:04:46.680Z,13.57
2019-02-14T20:07:30.897Z,14.20
2019-02-14T20:10:03.602Z,12.40
2019-02-14T20:12:36.085Z,10.53
2019-02-14T20:15:11.567Z,19.60
2019-02-14T20:17:46.143Z,22.87
2019-02-14T20:20:18.688Z,16.10
2019-02-14T20:22:51.402Z,15.33
2019-02-14T20:25:25.941Z,32.13
2019-02-14T20:27:58.479Z,38.60
2019-02-14T20:30:31.005Z,15.83
2019-02-14T20:33:05.051Z,14.67
2019-02-14T20:35:37.936Z,16.77
2019-02-14T20:38:10.483Z,29.83
2019-02-14T20:40:43.008Z,22.80
2019-02-14T20:43:17.048Z,18.33
2019-02-14T20:45:52.084Z,22.47
2019-02-14T20:48:24.566Z,15.37
2019-02-14T20:50:57.453Z,17.03
2019-02-14T20:53:30.164Z,15.37
2019-02-14T20:56:02.870Z,18.03
2019-02-14T20:58:35.523Z,16.17
2019-02-14T21:01:09.537Z,13.67
2019-02-14T21:03:42.359Z,15.70
2019-02-14T21:06:14.961Z,18.47
2019-02-14T21:08:47.578Z,15.80
2019-02-14T21:11:20.173Z,16.27
2019-02-14T21:13:52.790Z,17.83
2019-02-14T21:16:25.365Z,16.73
2019-02-14T21:18:58.016Z,14.60
2019-02-14T21:21:30.562Z,15.13
2019-02-14T21:24:03.104Z,17.77
2019-02-14T21:26:36.158Z,16.23
2019-02-14T21:29:08.932Z,18.13
2019-02-14T21:31:41.610Z,19.63
2019-02-14T21:34:14.194Z,20.57
2019-02-14T21:36:46.829Z,18.90
2019-02-14T21:39:19.368Z,16.47
2019-02-14T21:41:51.990Z,19.30
2019-02-14T21:44:26.104Z,15.93
2019-02-14T21:46:58.898Z,20.47
2019-02-14T21:49:32.320Z,17.83
2019-02-14T21:52:05.019Z,19.23
2019-02-14T21:54:37.581Z,17.63
2019-02-14T21:57:10.137Z,18.97
2019-02-14T21:59:43.148Z,19.10
2019-02-14T22:02:15.597Z,17.77
2019-02-14T22:04:48.093Z,19.43
2019-02-14T22:07:21.450Z,16.43
2019-02-14T22:09:54.157Z,17.70
2019-02-14T22:12:40.161Z,19.73
2019-02-14T22:15:00.754Z,20.93
2019-02-14T22:17:33.923Z,17.47
2019-02-14T22:20:07.268Z,20.27
2019-02-14T22:22:39.932Z,18.23
2019-02-14T22:25:12.471Z,18.23
2019-02-14T22:27:45.397Z,19.47
2019-02-14T22:30:18.021Z,20.17
2019-02-14T22:32:50.575Z,21.07
2019-02-14T22:35:23.068Z,18.87
2019-02-14T22:37:55.564Z,23.57
2019-02-14T22:40:28.223Z,20.73
2019-02-14T22:43:00.837Z,23.90
2019-02-14T22:45:33.719Z,22.23
2019-02-14T22:48:06.143Z,21.63
2019-02-14T22:50:39.138Z,23.93
2019-02-14T22:53:11.554Z,20.83
2019-02-14T22:55:44.354Z,22.43
2019-02-14T22:58:17.392Z,22.93
2019-02-14T23:00:56.905Z,25.00
2019-02-14T23:03:29.668Z,21.60
2019-02-14T23:06:02.196Z,24.33
2019-02-14T23:08:34.804Z,23.73
2019-02-14T23:11:07.384Z,25.33
2019-02-14T23:13:39.887Z,25.13
2019-02-14T23:16:12.636Z,21.87
2019-02-14T23:18:45.328Z,27.20
2019-02-14T23:21:18.007Z,22.77
2019-02-14T23:23:50.352Z,26.67
2019-02-14T23:26:22.729Z,28.73
2019-02-14T23:28:55.459Z,39.27
2019-02-14T23:31:27.915Z,30.43
2019-02-14T23:34:00.289Z,25.83
2019-02-14T23:36:32.822Z,27.23
2019-02-14T23:39:06.471Z,26.73
2019-02-14T23:41:39.091Z,28.13
2019-02-14T23:44:11.703Z,22.53
2019-02-14T23:46:44.169Z,23.73
2019-02-14T23:49:16.571Z,25.57
2019-02-14T23:51:48.994Z,26.77
2019-02-14T23:54:21.363Z,26.43
2019-02-14T23:56:53.903Z,26.80
2019-02-14T23:59:26.616Z,29.87
